sensor_id;sensor_type;location;lat;lon;timestamp;temperature;humidity
46552;DHT22;32278;51.810;4.712;2022-09-03T00:02:48;19.50;56.80
46552;DHT22;32278;51.810;4.712;2022-09-03T00:05:38;19.50;56.40
46552;DHT22;32278;51.810;4.712;2022-09-03T00:08:29;19.50;54.20
46552;DHT22;32278;51.810;4.712;2022-09-03T00:11:15;19.50;54.40
46552;DHT22;32278;51.810;4.712;2022-09-03T00:14:14;19.40;51.80
46552;DHT22;32278;51.810;4.712;2022-09-03T00:16:54;19.40;53.90
46552;DHT22;32278;51.810;4.712;2022-09-03T00:19:28;19.40;54.60
46552;DHT22;32278;51.810;4.712;2022-09-03T00:21:59;19.30;56.20
46552;DHT22;32278;51.810;4.712;2022-09-03T00:24:33;19.20;56.30
46552;DHT22;32278;51.810;4.712;2022-09-03T00:27:04;19.20;58.10
46552;DHT22;32278;51.810;4.712;2022-09-03T00:29:48;19.30;59.70
46552;DHT22;32278;51.810;4.712;2022-09-03T00:32:39;19.30;58.90
46552;DHT22;32278;51.810;4.712;2022-09-03T00:35:11;19.20;59.50
46552;DHT22;32278;51.810;4.712;2022-09-03T00:37:38;19.10;62.60
46552;DHT22;32278;51.810;4.712;2022-09-03T00:40:14;19.10;64.20
46552;DHT22;32278;51.810;4.712;2022-09-03T00:42:54;19.10;62.80
46552;DHT22;32278;51.810;4.712;2022-09-03T00:45:38;19.10;62.80
46552;DHT22;32278;51.810;4.712;2022-09-03T00:48:29;19.00;64.40
46552;DHT22;32278;51.810;4.712;2022-09-03T00:59:45;18.80;75.30
46552;DHT22;32278;51.810;4.712;2022-09-03T01:02:23;18.70;80.10
46552;DHT22;32278;51.810;4.712;2022-09-03T01:05:06;18.70;82.60
46552;DHT22;32278;51.810;4.712;2022-09-03T01:07:48;18.70;84.10
46552;DHT22;32278;51.810;4.712;2022-09-03T01:10:26;18.60;85.70
46552;DHT22;32278;51.810;4.712;2022-09-03T01:13:16;18.50;89.90
46552;DHT22;32278;51.810;4.712;2022-09-03T01:23:42;18.30;91.60
46552;DHT22;32278;51.810;4.712;2022-09-03T01:32:21;18.30;90.00
46552;DHT22;32278;51.810;4.712;2022-09-03T01:40:11;18.20;90.30
46552;DHT22;32278;51.810;4.712;2022-09-03T01:45:32;18.20;90.90
46552;DHT22;32278;51.810;4.712;2022-09-03T01:48:18;18.00;93.10
46552;DHT22;32278;51.810;4.712;2022-09-03T01:53:47;18.00;94.50
46552;DHT22;32278;51.810;4.712;2022-09-03T01:56:53;18.00;94.70
46552;DHT22;32278;51.810;4.712;2022-09-03T01:59:34;18.00;96.30
46552;DHT22;32278;51.810;4.712;2022-09-03T02:02:06;18.00;97.90
46552;DHT22;32278;51.810;4.712;2022-09-03T02:04:34;18.00;98.00
46552;DHT22;32278;51.810;4.712;2022-09-03T02:07:01;17.90;99.40
46552;DHT22;32278;51.810;4.712;2022-09-03T02:09:27;17.90;99.90
46552;DHT22;32278;51.810;4.712;2022-09-03T02:12:15;17.80;99.90
46552;DHT22;32278;51.810;4.712;2022-09-03T02:14:44;17.80;99.90
46552;DHT22;32278;51.810;4.712;2022-09-03T02:17:10;17.80;99.90
46552;DHT22;32278;51.810;4.712;2022-09-03T02:19:37;17.70;99.90
46552;DHT22;32278;51.810;4.712;2022-09-03T02:22:04;17.70;99.90
46552;DHT22;32278;51.810;4.712;2022-09-03T02:24:30;17.60;99.90
46552;DHT22;32278;51.810;4.712;2022-09-03T02:26:56;17.60;99.90
46552;DHT22;32278;51.810;4.712;2022-09-03T02:29:21;17.60;99.90
46552;DHT22;32278;51.810;4.712;2022-09-03T02:31:48;17.50;99.90
46552;DHT22;32278;51.810;4.712;2022-09-03T02:34:14;17.50;99.90
46552;DHT22;32278;51.810;4.712;2022-09-03T02:36:42;17.40;99.90
46552;DHT22;32278;51.810;4.712;2022-09-03T02:39:11;17.50;99.90
46552;DHT22;32278;51.810;4.712;2022-09-03T02:41:37;17.40;99.90
46552;DHT22;32278;51.810;4.712;2022-09-03T02:44:08;17.30;99.90
46552;DHT22;32278;51.810;4.712;2022-09-03T02:46:39;17.20;99.90
46552;DHT22;32278;51.810;4.712;2022-09-03T02:49:07;17.20;99.90
46552;DHT22;32278;51.810;4.712;2022-09-03T02:51:39;17.20;99.90
46552;DHT22;32278;51.810;4.712;2022-09-03T02:54:07;17.10;99.90
46552;DHT22;32278;51.810;4.712;2022-09-03T02:56:32;17.10;99.90
46552;DHT22;32278;51.810;4.712;2022-09-03T02:58:58;17.10;99.90
46552;DHT22;32278;51.810;4.712;2022-09-03T03:01:25;17.10;99.90
46552;DHT22;32278;51.810;4.712;2022-09-03T03:03:51;17.00;99.90
46552;DHT22;32278;51.810;4.712;2022-09-03T03:06:17;17.00;99.90
46552;DHT22;32278;51.810;4.712;2022-09-03T03:08:46;17.00;99.90
46552;DHT22;32278;51.810;4.712;2022-09-03T03:11:12;16.90;99.90
46552;DHT22;32278;51.810;4.712;2022-09-03T03:13:43;16.90;99.90
46552;DHT22;32278;51.810;4.712;2022-09-03T03:16:09;16.90;99.90
46552;DHT22;32278;51.810;4.712;2022-09-03T03:18:35;16.80;99.90
46552;DHT22;32278;51.810;4.712;2022-09-03T03:21:05;16.80;99.90
46552;DHT22;32278;51.810;4.712;2022-09-03T03:23:32;16.80;99.90
46552;DHT22;32278;51.810;4.712;2022-09-03T03:26:03;16.80;99.90
46552;DHT22;32278;51.810;4.712;2022-09-03T03:28:29;16.70;99.90
46552;DHT22;32278;51.810;4.712;2022-09-03T03:31:03;16.70;99.90
46552;DHT22;32278;51.810;4.712;2022-09-03T03:33:29;16.70;99.90
46552;DHT22;32278;51.810;4.712;2022-09-03T03:35:54;16.60;99.90
46552;DHT22;32278;51.810;4.712;2022-09-03T03:38:20;16.60;99.90
46552;DHT22;32278;51.810;4.712;2022-09-03T03:40:45;16.60;99.90
46552;DHT22;32278;51.810;4.712;2022-09-03T03:43:11;16.60;99.90
46552;DHT22;32278;51.810;4.712;2022-09-03T03:45:37;16.60;99.90
46552;DHT22;32278;51.810;4.712;2022-09-03T03:48:02;16.60;99.90
46552;DHT22;32278;51.810;4.712;2022-09-03T03:50:28;16.60;99.90
46552;DHT22;32278;51.810;4.712;2022-09-03T03:52:54;16.50;99.90
46552;DHT22;32278;51.810;4.712;2022-09-03T03:55:19;16.50;99.90
46552;DHT22;32278;51.810;4.712;2022-09-03T03:57:45;16.50;99.90
46552;DHT22;32278;51.810;4.712;2022-09-03T04:00:11;16.40;99.90
46552;DHT22;32278;51.810;4.712;2022-09-03T04:02:36;16.40;99.90
46552;DHT22;32278;51.810;4.712;2022-09-03T04:05:02;16.40;99.90
46552;DHT22;32278;51.810;4.712;2022-09-03T04:07:28;16.40;99.90
46552;DHT22;32278;51.810;4.712;2022-09-03T04:09:54;16.40;99.90
46552;DHT22;32278;51.810;4.712;2022-09-03T04:12:19;16.30;99.90
46552;DHT22;32278;51.810;4.712;2022-09-03T04:14:45;16.30;99.90
46552;DHT22;32278;51.810;4.712;2022-09-03T04:17:10;16.30;99.90
46552;DHT22;32278;51.810;4.712;2022-09-03T04:19:36;16.30;99.90
46552;DHT22;32278;51.810;4.712;2022-09-03T04:22:02;16.30;99.90
46552;DHT22;32278;51.810;4.712;2022-09-03T04:24:28;16.30;99.90
46552;DHT22;32278;51.810;4.712;2022-09-03T04:26:54;16.30;99.90
46552;DHT22;32278;51.810;4.712;2022-09-03T04:29:19;16.30;99.90
46552;DHT22;32278;51.810;4.712;2022-09-03T04:31:46;16.20;99.90
46552;DHT22;32278;51.810;4.712;2022-09-03T04:34:30;16.20;99.90
46552;DHT22;32278;51.810;4.712;2022-09-03T04:36:56;16.20;99.90
46552;DHT22;32278;51.810;4.712;2022-09-03T04:39:23;16.10;99.90
46552;DHT22;32278;51.810;4.712;2022-09-03T04:41:49;16.20;99.90
46552;DHT22;32278;51.810;4.712;2022-09-03T04:44:15;16.20;99.90
46552;DHT22;32278;51.810;4.712;2022-09-03T04:46:41;16.20;99.90
46552;DHT22;32278;51.810;4.712;2022-09-03T04:49:06;16.20;99.90
46552;DHT22;32278;51.810;4.712;2022-09-03T04:51:34;16.20;99.90
46552;DHT22;32278;51.810;4.712;2022-09-03T04:54:02;16.10;99.90
46552;DHT22;32278;51.810;4.712;2022-09-03T04:56:31;16.20;99.90
46552;DHT22;32278;51.810;4.712;2022-09-03T04:58:59;16.20;99.90
46552;DHT22;32278;51.810;4.712;2022-09-03T05:01:26;16.10;99.90
46552;DHT22;32278;51.810;4.712;2022-09-03T05:03:54;16.20;99.90
46552;DHT22;32278;51.810;4.712;2022-09-03T05:06:20;16.20;99.90
46552;DHT22;32278;51.810;4.712;2022-09-03T05:08:50;16.10;99.90
46552;DHT22;32278;51.810;4.712;2022-09-03T05:11:17;16.10;99.90
46552;DHT22;32278;51.810;4.712;2022-09-03T05:13:46;16.10;99.90
46552;DHT22;32278;51.810;4.712;2022-09-03T05:16:11;16.10;99.90
46552;DHT22;32278;51.810;4.712;2022-09-03T05:18:38;16.00;99.90
46552;DHT22;32278;51.810;4.712;2022-09-03T05:21:12;16.00;99.90
46552;DHT22;32278;51.810;4.712;2022-09-03T05:23:40;16.00;99.90
46552;DHT22;32278;51.810;4.712;2022-09-03T05:26:12;16.00;99.90
46552;DHT22;32278;51.810;4.712;2022-09-03T05:28:39;16.00;99.90
46552;DHT22;32278;51.810;4.712;2022-09-03T05:31:10;16.00;99.90
46552;DHT22;32278;51.810;4.712;2022-09-03T05:33:41;16.00;99.90
46552;DHT22;32278;51.810;4.712;2022-09-03T05:36:09;16.10;99.90
46552;DHT22;32278;51.810;4.712;2022-09-03T05:38:36;16.00;99.90
46552;DHT22;32278;51.810;4.712;2022-09-03T05:41:04;16.10;99.90
46552;DHT22;32278;51.810;4.712;2022-09-03T05:43:31;16.00;99.90
46552;DHT22;32278;51.810;4.712;2022-09-03T05:46:15;16.00;99.90
46552;DHT22;32278;51.810;4.712;2022-09-03T05:48:43;16.10;99.90
46552;DHT22;32278;51.810;4.712;2022-09-03T05:51:15;16.20;99.90
46552;DHT22;32278;51.810;4.712;2022-09-03T05:53:43;16.20;99.90
46552;DHT22;32278;51.810;4.712;2022-09-03T05:56:12;16.20;99.90
46552;DHT22;32278;51.810;4.712;2022-09-03T05:58:40;16.20;99.90
46552;DHT22;32278;51.810;4.712;2022-09-03T06:03:52;16.30;99.90
46552;DHT22;32278;51.810;4.712;2022-09-03T06:06:20;16.40;99.90
46552;DHT22;32278;51.810;4.712;2022-09-03T06:08:53;16.50;99.90
46552;DHT22;32278;51.810;4.712;2022-09-03T06:11:20;16.60;99.90
46552;DHT22;32278;51.810;4.712;2022-09-03T06:13:53;16.60;99.90
46552;DHT22;32278;51.810;4.712;2022-09-03T06:16:19;16.60;99.90
46552;DHT22;32278;51.810;4.712;2022-09-03T06:18:46;16.70;99.90
46552;DHT22;32278;51.810;4.712;2022-09-03T06:21:11;16.70;99.90
46552;DHT22;32278;51.810;4.712;2022-09-03T06:23:37;16.80;99.90
46552;DHT22;32278;51.810;4.712;2022-09-03T06:28:29;16.90;99.90
46552;DHT22;32278;51.810;4.712;2022-09-03T06:30:57;16.90;99.90
46552;DHT22;32278;51.810;4.712;2022-09-03T06:33:23;16.90;99.90
46552;DHT22;32278;51.810;4.712;2022-09-03T06:35:53;17.00;99.90
46552;DHT22;32278;51.810;4.712;2022-09-03T06:38:22;17.10;99.90
46552;DHT22;32278;51.810;4.712;2022-09-03T06:40:52;17.20;99.90
46552;DHT22;32278;51.810;4.712;2022-09-03T06:43:18;17.30;99.90
46552;DHT22;32278;51.810;4.712;2022-09-03T06:45:55;17.40;99.90
46552;DHT22;32278;51.810;4.712;2022-09-03T06:48:22;17.50;99.90
46552;DHT22;32278;51.810;4.712;2022-09-03T06:51:02;17.50;99.90
46552;DHT22;32278;51.810;4.712;2022-09-03T06:53:30;17.60;99.90
46552;DHT22;32278;51.810;4.712;2022-09-03T06:55:59;17.70;99.90
46552;DHT22;32278;51.810;4.712;2022-09-03T06:58:34;17.90;99.90
46552;DHT22;32278;51.810;4.712;2022-09-03T07:01:05;17.90;99.90
46552;DHT22;32278;51.810;4.712;2022-09-03T07:03:31;17.80;99.90
46552;DHT22;32278;51.810;4.712;2022-09-03T07:06:01;17.90;99.90
46552;DHT22;32278;51.810;4.712;2022-09-03T07:08:27;18.00;99.90
46552;DHT22;32278;51.810;4.712;2022-09-03T07:10:54;18.10;99.90
46552;DHT22;32278;51.810;4.712;2022-09-03T07:13:19;18.20;99.90
46552;DHT22;32278;51.810;4.712;2022-09-03T07:15:45;18.20;99.90
46552;DHT22;32278;51.810;4.712;2022-09-03T07:18:11;18.30;99.90
46552;DHT22;32278;51.810;4.712;2022-09-03T07:20:36;18.40;99.90
46552;DHT22;32278;51.810;4.712;2022-09-03T07:23:02;18.40;99.90
46552;DHT22;32278;51.810;4.712;2022-09-03T07:25:28;18.50;99.90
46552;DHT22;32278;51.810;4.712;2022-09-03T07:27:55;18.50;99.90
46552;DHT22;32278;51.810;4.712;2022-09-03T07:30:21;18.40;99.90
46552;DHT22;32278;51.810;4.712;2022-09-03T07:32:47;18.50;99.90
46552;DHT22;32278;51.810;4.712;2022-09-03T07:35:15;18.50;99.90
46552;DHT22;32278;51.810;4.712;2022-09-03T07:37:42;18.60;99.90
46552;DHT22;32278;51.810;4.712;2022-09-03T07:40:09;18.80;99.90
46552;DHT22;32278;51.810;4.712;2022-09-03T07:42:36;18.90;99.90
46552;DHT22;32278;51.810;4.712;2022-09-03T07:45:05;18.90;99.90
46552;DHT22;32278;51.810;4.712;2022-09-03T07:47:34;18.90;99.90
46552;DHT22;32278;51.810;4.712;2022-09-03T07:50:00;18.90;99.90
46552;DHT22;32278;51.810;4.712;2022-09-03T07:52:25;18.80;99.90
46552;DHT22;32278;51.810;4.712;2022-09-03T07:54:52;18.70;99.90
46552;DHT22;32278;51.810;4.712;2022-09-03T07:57:17;18.80;99.90
46552;DHT22;32278;51.810;4.712;2022-09-03T07:59:43;19.00;99.90
46552;DHT22;32278;51.810;4.712;2022-09-03T08:02:08;19.30;99.90
46552;DHT22;32278;51.810;4.712;2022-09-03T08:04:34;19.50;99.90
46552;DHT22;32278;51.810;4.712;2022-09-03T08:07:00;19.60;99.90
46552;DHT22;32278;51.810;4.712;2022-09-03T08:09:26;19.70;99.20
46552;DHT22;32278;51.810;4.712;2022-09-03T08:11:51;20.00;92.00
46552;DHT22;32278;51.810;4.712;2022-09-03T08:14:17;20.30;73.90
46552;DHT22;32278;51.810;4.712;2022-09-03T08:16:45;20.70;66.40
46552;DHT22;32278;51.810;4.712;2022-09-03T08:19:13;21.00;51.20
46552;DHT22;32278;51.810;4.712;2022-09-03T08:21:40;21.40;35.20
46552;DHT22;32278;51.810;4.712;2022-09-03T08:24:06;21.70;19.00
46552;DHT22;32278;51.810;4.712;2022-09-03T08:26:34;21.70;14.60
46552;DHT22;32278;51.810;4.712;2022-09-03T08:29:01;21.60;20.10
46552;DHT22;32278;51.810;4.712;2022-09-03T08:31:28;21.70;20.60
46552;DHT22;32278;51.810;4.712;2022-09-03T08:33:56;21.80;14.00
46552;DHT22;32278;51.810;4.712;2022-09-03T08:36:33;21.60;15.40
46552;DHT22;32278;51.810;4.712;2022-09-03T08:39:01;21.70;22.10
46552;DHT22;32278;51.810;4.712;2022-09-03T08:47:32;21.80;21.00
46552;DHT22;32278;51.810;4.712;2022-09-03T08:53:16;22.30;8.80
46552;DHT22;32278;51.810;4.712;2022-09-03T08:56:24;22.40;7.00
46552;DHT22;32278;51.810;4.712;2022-09-03T08:58:42;22.80;3.50
46552;DHT22;32278;51.810;4.712;2022-09-03T09:06:33;23.20;1.00
46552;DHT22;32278;51.810;4.712;2022-09-03T09:09:26;23.40;1.00
46552;DHT22;32278;51.810;4.712;2022-09-03T09:15:05;23.50;1.00
46552;DHT22;32278;51.810;4.712;2022-09-03T09:22:40;24.50;1.00
46552;DHT22;32278;51.810;4.712;2022-09-03T09:25:12;24.60;1.00
46552;DHT22;32278;51.810;4.712;2022-09-03T09:27:50;24.90;1.00
46552;DHT22;32278;51.810;4.712;2022-09-03T09:30:17;24.60;1.00
46552;DHT22;32278;51.810;4.712;2022-09-03T09:32:43;24.80;1.00
46552;DHT22;32278;51.810;4.712;2022-09-03T09:35:10;24.90;1.00
46552;DHT22;32278;51.810;4.712;2022-09-03T09:37:53;24.70;1.00
46552;DHT22;32278;51.810;4.712;2022-09-03T09:40:39;24.50;1.00
46552;DHT22;32278;51.810;4.712;2022-09-03T09:43:18;24.50;1.00
46552;DHT22;32278;51.810;4.712;2022-09-03T09:45:48;24.70;1.00
46552;DHT22;32278;51.810;4.712;2022-09-03T09:48:31;24.80;1.00
46552;DHT22;32278;51.810;4.712;2022-09-03T09:51:08;24.80;1.00
46552;DHT22;32278;51.810;4.712;2022-09-03T09:53:34;24.30;1.00
46552;DHT22;32278;51.810;4.712;2022-09-03T09:55:59;24.10;1.00
46552;DHT22;32278;51.810;4.712;2022-09-03T09:58:28;24.10;1.00
46552;DHT22;32278;51.810;4.712;2022-09-03T10:01:10;24.20;1.00
46552;DHT22;32278;51.810;4.712;2022-09-03T10:03:51;23.90;1.00
46552;DHT22;32278;51.810;4.712;2022-09-03T10:06:25;23.80;1.00
46552;DHT22;32278;51.810;4.712;2022-09-03T10:09:16;23.90;1.00
46552;DHT22;32278;51.810;4.712;2022-09-03T10:11:48;23.90;1.00
46552;DHT22;32278;51.810;4.712;2022-09-03T10:14:23;24.00;1.00
46552;DHT22;32278;51.810;4.712;2022-09-03T10:16:59;24.00;1.00
46552;DHT22;32278;51.810;4.712;2022-09-03T10:22:40;23.30;1.00
46552;DHT22;32278;51.810;4.712;2022-09-03T10:25:12;23.30;1.00
46552;DHT22;32278;51.810;4.712;2022-09-03T10:27:39;23.30;1.00
46552;DHT22;32278;51.810;4.712;2022-09-03T10:30:06;23.60;1.00
46552;DHT22;32278;51.810;4.712;2022-09-03T10:38:21;24.60;1.00
46552;DHT22;32278;51.810;4.712;2022-09-03T10:40:39;24.30;1.00
46552;DHT22;32278;51.810;4.712;2022-09-03T10:46:02;24.70;1.00
46552;DHT22;32278;51.810;4.712;2022-09-03T10:57:06;24.30;1.00
46552;DHT22;32278;51.810;4.712;2022-09-03T10:59:47;24.30;1.00
46552;DHT22;32278;51.810;4.712;2022-09-03T11:08:20;24.90;1.00
46552;DHT22;32278;51.810;4.712;2022-09-03T11:10:51;25.10;1.00
46552;DHT22;32278;51.810;4.712;2022-09-03T11:13:21;25.20;1.00
46552;DHT22;32278;51.810;4.712;2022-09-03T11:15:58;25.50;1.00
46552;DHT22;32278;51.810;4.712;2022-09-03T11:18:42;26.10;1.00
46552;DHT22;32278;51.810;4.712;2022-09-03T11:21:12;26.40;1.00
46552;DHT22;32278;51.810;4.712;2022-09-03T11:23:46;26.30;1.00
46552;DHT22;32278;51.810;4.712;2022-09-03T11:26:16;26.70;1.00
46552;DHT22;32278;51.810;4.712;2022-09-03T11:28:54;26.60;1.00
46552;DHT22;32278;51.810;4.712;2022-09-03T11:31:31;27.00;1.00
46552;DHT22;32278;51.810;4.712;2022-09-03T11:34:05;27.50;1.00
46552;DHT22;32278;51.810;4.712;2022-09-03T11:36:34;27.80;99.90
46552;DHT22;32278;51.810;4.712;2022-09-03T11:39:00;28.00;99.90
46552;DHT22;32278;51.810;4.712;2022-09-03T11:41:37;28.10;99.90
46552;DHT22;32278;51.810;4.712;2022-09-03T11:44:18;27.90;99.90
46552;DHT22;32278;51.810;4.712;2022-09-03T11:46:57;28.50;99.90
46552;DHT22;32278;51.810;4.712;2022-09-03T11:49:29;29.10;99.90
46552;DHT22;32278;51.810;4.712;2022-09-03T11:52:01;29.50;99.90
46552;DHT22;32278;51.810;4.712;2022-09-03T11:54:31;28.50;99.90
46552;DHT22;32278;51.810;4.712;2022-09-03T11:57:12;28.60;99.90
46552;DHT22;32278;51.810;4.712;2022-09-03T11:59:41;28.80;99.90
46552;DHT22;32278;51.810;4.712;2022-09-03T12:02:28;28.80;99.90
46552;DHT22;32278;51.810;4.712;2022-09-03T12:12:51;29.90;99.90
46552;DHT22;32278;51.810;4.712;2022-09-03T12:18:22;31.20;99.90
46552;DHT22;32278;51.810;4.712;2022-09-03T12:21:04;30.50;99.90
46552;DHT22;32278;51.810;4.712;2022-09-03T12:23:31;29.60;99.90
46552;DHT22;32278;51.810;4.712;2022-09-03T12:26:02;29.80;99.90
46552;DHT22;32278;51.810;4.712;2022-09-03T12:28:30;29.90;99.90
46552;DHT22;32278;51.810;4.712;2022-09-03T12:31:12;29.70;99.90
46552;DHT22;32278;51.810;4.712;2022-09-03T12:33:47;28.90;99.90
46552;DHT22;32278;51.810;4.712;2022-09-03T12:36:12;29.00;99.90
46552;DHT22;32278;51.810;4.712;2022-09-03T12:38:38;29.60;99.90
46552;DHT22;32278;51.810;4.712;2022-09-03T12:41:04;30.10;99.90
46552;DHT22;32278;51.810;4.712;2022-09-03T12:43:29;30.70;99.90
46552;DHT22;32278;51.810;4.712;2022-09-03T12:45:55;30.10;99.90
46552;DHT22;32278;51.810;4.712;2022-09-03T12:48:21;30.30;99.90
46552;DHT22;32278;51.810;4.712;2022-09-03T12:50:48;30.50;99.90
46552;DHT22;32278;51.810;4.712;2022-09-03T12:53:25;30.20;99.90
46552;DHT22;32278;51.810;4.712;2022-09-03T12:55:54;30.00;99.90
46552;DHT22;32278;51.810;4.712;2022-09-03T12:58:31;29.60;99.90
46552;DHT22;32278;51.810;4.712;2022-09-03T13:03:30;29.00;99.90
46552;DHT22;32278;51.810;4.712;2022-09-03T13:06:06;29.30;99.90
46552;DHT22;32278;51.810;4.712;2022-09-03T13:08:40;29.20;99.90
46552;DHT22;32278;51.810;4.712;2022-09-03T13:11:08;29.40;99.90
46552;DHT22;32278;51.810;4.712;2022-09-03T13:13:35;29.20;99.90
46552;DHT22;32278;51.810;4.712;2022-09-03T13:19:00;29.00;99.90
46552;DHT22;32278;51.810;4.712;2022-09-03T13:27:30;28.00;99.90
46552;DHT22;32278;51.810;4.712;2022-09-03T13:38:24;27.80;99.90
46552;DHT22;32278;51.810;4.712;2022-09-03T13:40:57;28.20;99.90
46552;DHT22;32278;51.810;4.712;2022-09-03T13:43:32;28.40;99.90
46552;DHT22;32278;51.810;4.712;2022-09-03T13:48:37;27.20;99.90
46552;DHT22;32278;51.810;4.712;2022-09-03T13:54:19;27.60;99.90
46552;DHT22;32278;51.810;4.712;2022-09-03T13:56:54;27.70;99.90
46552;DHT22;32278;51.810;4.712;2022-09-03T13:59:28;27.20;99.90
46552;DHT22;32278;51.810;4.712;2022-09-03T14:04:52;27.30;99.90
46552;DHT22;32278;51.810;4.712;2022-09-03T14:07:25;27.10;99.90
46552;DHT22;32278;51.810;4.712;2022-09-03T14:12:45;27.00;99.90
46552;DHT22;32278;51.810;4.712;2022-09-03T14:15:25;27.10;99.90
46552;DHT22;32278;51.810;4.712;2022-09-03T14:18:02;27.10;99.90
46552;DHT22;32278;51.810;4.712;2022-09-03T14:26:28;26.90;99.90
46552;DHT22;32278;51.810;4.712;2022-09-03T14:29:06;26.80;99.90
46552;DHT22;32278;51.810;4.712;2022-09-03T14:36:44;26.90;99.90
46552;DHT22;32278;51.810;4.712;2022-09-03T14:41:44;26.90;99.90
46552;DHT22;32278;51.810;4.712;2022-09-03T14:44:22;26.90;99.90
46552;DHT22;32278;51.810;4.712;2022-09-03T14:52:32;26.70;99.90
46552;DHT22;32278;51.810;4.712;2022-09-03T15:00:58;26.80;99.90
46552;DHT22;32278;51.810;4.712;2022-09-03T15:09:39;26.70;99.90
46552;DHT22;32278;51.810;4.712;2022-09-03T15:12:24;26.60;99.90
46552;DHT22;32278;51.810;4.712;2022-09-03T15:14:59;26.70;99.90
46552;DHT22;32278;51.810;4.712;2022-09-03T15:20:35;26.90;99.90
46552;DHT22;32278;51.810;4.712;2022-09-03T15:32:01;26.60;99.90
46552;DHT22;32278;51.810;4.712;2022-09-03T15:37:20;26.50;99.90
46552;DHT22;32278;51.810;4.712;2022-09-03T15:42:47;26.70;99.90
46552;DHT22;32278;51.810;4.712;2022-09-03T15:45:24;26.60;99.90
46552;DHT22;32278;51.810;4.712;2022-09-03T15:47:55;26.60;99.90
46552;DHT22;32278;51.810;4.712;2022-09-03T15:50:32;26.70;99.90
46552;DHT22;32278;51.810;4.712;2022-09-03T15:54:01;26.60;99.90
46552;DHT22;32278;51.810;4.712;2022-09-03T15:59:02;26.70;99.90
46552;DHT22;32278;51.810;4.712;2022-09-03T16:01:47;26.70;99.90
46552;DHT22;32278;51.810;4.712;2022-09-03T16:07:08;26.60;99.90
46552;DHT22;32278;51.810;4.712;2022-09-03T16:15:20;26.40;99.90
46552;DHT22;32278;51.810;4.712;2022-09-03T16:18:01;26.40;99.90
46552;DHT22;32278;51.810;4.712;2022-09-03T16:20:42;26.40;99.90
46552;DHT22;32278;51.810;4.712;2022-09-03T16:26:03;26.60;99.90
46552;DHT22;32278;51.810;4.712;2022-09-03T16:34:14;26.30;99.90
46552;DHT22;32278;51.810;4.712;2022-09-03T16:40:11;26.40;99.90
46552;DHT22;32278;51.810;4.712;2022-09-03T16:42:52;26.40;99.90
46552;DHT22;32278;51.810;4.712;2022-09-03T16:45:29;26.30;99.90
46552;DHT22;32278;51.810;4.712;2022-09-03T16:50:54;26.20;99.90
46552;DHT22;32278;51.810;4.712;2022-09-03T16:53:54;26.20;99.90
46552;DHT22;32278;51.810;4.712;2022-09-03T16:56:49;26.20;99.90
46552;DHT22;32278;51.810;4.712;2022-09-03T17:00:00;26.30;99.90
46552;DHT22;32278;51.810;4.712;2022-09-03T17:02:58;26.20;99.90
46552;DHT22;32278;51.810;4.712;2022-09-03T17:05:48;26.10;99.90
46552;DHT22;32278;51.810;4.712;2022-09-03T17:19:26;25.90;1.00
46552;DHT22;32278;51.810;4.712;2022-09-03T17:24:41;25.70;1.00
46552;DHT22;32278;51.810;4.712;2022-09-03T17:44:06;25.50;1.00
46552;DHT22;32278;51.810;4.712;2022-09-03T17:46:39;25.50;1.00
46552;DHT22;32278;51.810;4.712;2022-09-03T17:49:07;25.50;1.00
46552;DHT22;32278;51.810;4.712;2022-09-03T17:54:42;25.30;1.00
46552;DHT22;32278;51.810;4.712;2022-09-03T17:57:31;25.30;1.00
46552;DHT22;32278;51.810;4.712;2022-09-03T18:00:08;25.30;1.00
46552;DHT22;32278;51.810;4.712;2022-09-03T18:02:38;25.20;1.00
46552;DHT22;32278;51.810;4.712;2022-09-03T18:05:25;25.10;1.00
46552;DHT22;32278;51.810;4.712;2022-09-03T18:10:43;25.00;1.00
46552;DHT22;32278;51.810;4.712;2022-09-03T18:13:24;24.90;1.00
46552;DHT22;32278;51.810;4.712;2022-09-03T18:16:04;24.90;1.00
46552;DHT22;32278;51.810;4.712;2022-09-03T18:18:32;24.80;1.00
46552;DHT22;32278;51.810;4.712;2022-09-03T18:21:00;24.70;1.00
46552;DHT22;32278;51.810;4.712;2022-09-03T18:24:29;24.60;1.00
46552;DHT22;32278;51.810;4.712;2022-09-03T18:30:07;24.50;1.00
46552;DHT22;32278;51.810;4.712;2022-09-03T18:32:52;24.30;1.00
46552;DHT22;32278;51.810;4.712;2022-09-03T18:35:37;24.20;1.00
46552;DHT22;32278;51.810;4.712;2022-09-03T18:38:30;24.20;1.00
46552;DHT22;32278;51.810;4.712;2022-09-03T18:44:53;24.40;1.00
46552;DHT22;32278;51.810;4.712;2022-09-03T18:50:47;24.40;1.00
46552;DHT22;32278;51.810;4.712;2022-09-03T18:56:49;24.40;1.00
46552;DHT22;32278;51.810;4.712;2022-09-03T19:09:20;24.40;1.00
46552;DHT22;32278;51.810;4.712;2022-09-03T19:15:26;24.00;1.00
46552;DHT22;32278;51.810;4.712;2022-09-03T19:21:28;23.70;1.30
46552;DHT22;32278;51.810;4.712;2022-09-03T19:24:15;23.70;8.20
46552;DHT22;32278;51.810;4.712;2022-09-03T19:30:34;23.60;14.90
46552;DHT22;32278;51.810;4.712;2022-09-03T19:36:46;23.60;17.50
46552;DHT22;32278;51.810;4.712;2022-09-03T19:43:20;23.50;23.00
46552;DHT22;32278;51.810;4.712;2022-09-03T19:46:26;23.50;27.50
46552;DHT22;32278;51.810;4.712;2022-09-03T19:49:19;23.50;27.90
46552;DHT22;32278;51.810;4.712;2022-09-03T19:55:17;23.40;28.30
46552;DHT22;32278;51.810;4.712;2022-09-03T19:58:02;23.20;38.30
46552;DHT22;32278;51.810;4.712;2022-09-03T20:00:47;23.20;44.70
46552;DHT22;32278;51.810;4.712;2022-09-03T20:03:31;23.10;51.60
46552;DHT22;32278;51.810;4.712;2022-09-03T20:06:16;23.00;56.10
46552;DHT22;32278;51.810;4.712;2022-09-03T20:09:07;22.90;67.10
46552;DHT22;32278;51.810;4.712;2022-09-03T20:11:56;22.70;78.60
46552;DHT22;32278;51.810;4.712;2022-09-03T20:14:22;22.60;78.10
46552;DHT22;32278;51.810;4.712;2022-09-03T20:22:27;22.60;76.10
46552;DHT22;32278;51.810;4.712;2022-09-03T20:25:13;22.60;80.40
46552;DHT22;32278;51.810;4.712;2022-09-03T20:33:23;22.40;88.90
46552;DHT22;32278;51.810;4.712;2022-09-03T20:36:17;22.40;83.60
46552;DHT22;32278;51.810;4.712;2022-09-03T20:44:22;22.60;78.20
46552;DHT22;32278;51.810;4.712;2022-09-03T20:49:55;22.50;86.80
46552;DHT22;32278;51.810;4.712;2022-09-03T20:52:35;22.40;93.90
46552;DHT22;32278;51.810;4.712;2022-09-03T20:58:06;22.40;99.70
46552;DHT22;32278;51.810;4.712;2022-09-03T21:01:02;22.40;99.90
46552;DHT22;32278;51.810;4.712;2022-09-03T21:06:47;22.50;99.90
46552;DHT22;32278;51.810;4.712;2022-09-03T21:18:09;22.40;99.90
46552;DHT22;32278;51.810;4.712;2022-09-03T21:20:46;22.30;99.90
46552;DHT22;32278;51.810;4.712;2022-09-03T21:23:23;22.30;99.90
46552;DHT22;32278;51.810;4.712;2022-09-03T21:26:18;22.20;99.90
46552;DHT22;32278;51.810;4.712;2022-09-03T21:29:00;22.20;99.90
46552;DHT22;32278;51.810;4.712;2022-09-03T21:34:18;22.10;99.90
46552;DHT22;32278;51.810;4.712;2022-09-03T21:36:45;22.10;99.90